sensor_id;sensor_type;location;lat;lon;timestamp;pressure;altitude;pressure_sealevel;temperature;humidity
54407;BME280;40313;50.308;30.374;2022-12-04T03:17:07;101782.59;;;-6.30;100.00
54407;BME280;40313;50.308;30.374;2022-12-04T03:19:38;101771.72;;;-6.27;100.00
54407;BME280;40313;50.308;30.374;2022-12-04T03:22:09;101774.41;;;-6.24;100.00
54407;BME280;40313;50.308;30.374;2022-12-04T03:24:41;101774.53;;;-6.21;100.00
54407;BME280;40313;50.308;30.374;2022-12-04T03:27:12;101780.53;;;-6.19;100.00
54407;BME280;40313;50.308;30.374;2022-12-04T03:29:42;101776.13;;;-6.23;100.00
54407;BME280;40313;50.308;30.374;2022-12-04T03:32:15;101776.13;;;-6.23;100.00
54407;BME280;40313;50.308;30.374;2022-12-04T03:34:50;101777.59;;;-6.28;100.00
54407;BME280;40313;50.308;30.374;2022-12-04T03:41:12;101778.91;;;-6.36;100.00
54407;BME280;40313;50.308;30.374;2022-12-04T03:43:45;101783.75;;;-6.41;100.00
54407;BME280;40313;50.308;30.374;2022-12-04T03:46:17;101785.59;;;-6.38;100.00
54407;BME280;40313;50.308;30.374;2022-12-04T03:48:52;101792.09;;;-6.44;100.00
54407;BME280;40313;50.308;30.374;2022-12-04T03:56:51;101796.00;;;-6.50;100.00
54407;BME280;40313;50.308;30.374;2022-12-04T03:59:21;101791.00;;;-6.49;100.00
54407;BME280;40313;50.308;30.374;2022-12-04T04:01:49;101789.41;;;-6.47;100.00
54407;BME280;40313;50.308;30.374;2022-12-04T04:04:20;101786.81;;;-6.48;100.00
54407;BME280;40313;50.308;30.374;2022-12-04T04:06:52;101796.00;;;-6.50;100.00
54407;BME280;40313;50.308;30.374;2022-12-04T04:09:23;101800.38;;;-6.48;100.00
54407;BME280;40313;50.308;30.374;2022-12-04T04:16:03;101793.25;;;-6.55;100.00
54407;BME280;40313;50.308;30.374;2022-12-04T04:18:50;101788.19;;;-6.55;100.00
54407;BME280;40313;50.308;30.374;2022-12-04T04:21:38;101788.19;;;-6.55;100.00
54407;BME280;40313;50.308;30.374;2022-12-04T04:24:28;101793.25;;;-6.55;100.00
54407;BME280;40313;50.308;30.374;2022-12-04T07:24:48;101857.06;;;-6.65;100.00
54407;BME280;40313;50.308;30.374;2022-12-04T07:27:15;101843.88;;;-6.58;100.00
54407;BME280;40313;50.308;30.374;2022-12-04T07:31:10;101854.31;;;-6.52;100.00
54407;BME280;40313;50.308;30.374;2022-12-04T07:33:37;101859.25;;;-6.55;100.00
54407;BME280;40313;50.308;30.374;2022-12-04T07:36:06;101852.00;;;-6.65;100.00
54407;BME280;40313;50.308;30.374;2022-12-04T07:40:31;101851.53;;;-6.74;100.00
54407;BME280;40313;50.308;30.374;2022-12-04T07:42:58;101848.66;;;-6.64;100.00
54407;BME280;40313;50.308;30.374;2022-12-04T07:45:24;101852.34;;;-6.75;100.00
54407;BME280;40313;50.308;30.374;2022-12-04T07:51:21;101860.94;;;-6.90;100.00
54407;BME280;40313;50.308;30.374;2022-12-04T07:53:49;101863.91;;;-6.81;100.00
54407;BME280;40313;50.308;30.374;2022-12-04T07:56:17;101866.75;;;-6.74;100.00
54407;BME280;40313;50.308;30.374;2022-12-04T07:58:45;101856.09;;;-6.67;100.00
54407;BME280;40313;50.308;30.374;2022-12-04T08:23:56;101857.50;;;-6.74;100.00
54407;BME280;40313;50.308;30.374;2022-12-04T08:26:25;101859.25;;;-6.73;100.00
54407;BME280;40313;50.308;30.374;2022-12-04T08:28:53;101849.31;;;-6.68;100.00
54407;BME280;40313;50.308;30.374;2022-12-04T08:31:23;101844.88;;;-6.54;100.00
54407;BME280;40313;50.308;30.374;2022-12-04T08:36:18;101842.44;;;-6.53;100.00
54407;BME280;40313;50.308;30.374;2022-12-04T08:38:45;101846.84;;;-6.49;100.00
54407;BME280;40313;50.308;30.374;2022-12-04T08:41:13;101851.47;;;-6.41;100.00
54407;BME280;40313;50.308;30.374;2022-12-04T08:43:40;101846.47;;;-6.40;100.00
54407;BME280;40313;50.308;30.374;2022-12-04T08:46:08;101841.94;;;-6.28;100.00
54407;BME280;40313;50.308;30.374;2022-12-04T08:48:35;101845.88;;;-6.16;100.00
54407;BME280;40313;50.308;30.374;2022-12-04T09:12:04;101828.19;;;-5.95;100.00
54407;BME280;40313;50.308;30.374;2022-12-04T09:14:30;101827.41;;;-5.94;100.00
54407;BME280;40313;50.308;30.374;2022-12-04T09:16:57;101823.63;;;-5.84;100.00
54407;BME280;40313;50.308;30.374;2022-12-04T09:19:23;101821.00;;;-5.86;100.00
54407;BME280;40313;50.308;30.374;2022-12-04T09:21:50;101827.75;;;-5.86;100.00
54407;BME280;40313;50.308;30.374;2022-12-04T09:28:11;101825.56;;;-5.98;100.00
54407;BME280;40313;50.308;30.374;2022-12-04T09:30:37;101819.53;;;-5.81;100.00
54407;BME280;40313;50.308;30.374;2022-12-04T09:33:04;101819.16;;;-5.70;100.00
54407;BME280;40313;50.308;30.374;2022-12-04T09:35:30;101812.88;;;-5.59;100.00
54407;BME280;40313;50.308;30.374;2022-12-04T09:37:58;101814.09;;;-5.51;100.00
54407;BME280;40313;50.308;30.374;2022-12-04T09:40:26;101804.03;;;-5.67;100.00
54407;BME280;40313;50.308;30.374;2022-12-04T09:42:59;101808.13;;;-5.71;100.00
54407;BME280;40313;50.308;30.374;2022-12-04T09:45:31;101805.44;;;-5.74;100.00
54407;BME280;40313;50.308;30.374;2022-12-04T09:48:03;101795.47;;;-5.69;100.00
54407;BME280;40313;50.308;30.374;2022-12-04T09:54:33;101795.03;;;-5.79;100.00
54407;BME280;40313;50.308;30.374;2022-12-04T09:57:04;101796.13;;;-5.74;100.00
54407;BME280;40313;50.308;30.374;2022-12-04T09:59:35;101797.97;;;-5.89;100.00
54407;BME280;40313;50.308;30.374;2022-12-04T10:02:17;101798.56;;;-5.95;100.00
54407;BME280;40313;50.308;30.374;2022-12-04T10:04:50;101788.25;;;-5.80;100.00
54407;BME280;40313;50.308;30.374;2022-12-04T10:07:19;101788.44;;;-5.75;100.00
54407;BME280;40313;50.308;30.374;2022-12-04T10:09:54;101779.63;;;-5.64;100.00
54407;BME280;40313;50.308;30.374;2022-12-04T10:12:28;101778.59;;;-5.67;100.00
54407;BME280;40313;50.308;30.374;2022-12-04T10:15:10;101780.06;;;-5.53;100.00
54407;BME280;40313;50.308;30.374;2022-12-04T10:17:49;101783.09;;;-5.62;100.00
54407;BME280;40313;50.308;30.374;2022-12-04T10:20:29;101775.94;;;-5.70;100.00
54407;BME280;40313;50.308;30.374;2022-12-04T10:23:05;101780.16;;;-5.71;100.00
54407;BME280;40313;50.308;30.374;2022-12-04T10:25:37;101770.25;;;-5.84;100.00
54407;BME280;40313;50.308;30.374;2022-12-04T10:28:10;101769.84;;;-5.74;100.00
54407;BME280;40313;50.308;30.374;2022-12-04T10:30:44;101777.69;;;-5.69;100.00
54407;BME280;40313;50.308;30.374;2022-12-04T10:38:53;101775.06;;;-5.71;100.00
54407;BME280;40313;50.308;30.374;2022-12-04T10:41:23;101777.75;;;-5.68;100.00
54407;BME280;40313;50.308;30.374;2022-12-04T10:43:52;101785.78;;;-5.59;100.00
54407;BME280;40313;50.308;30.374;2022-12-04T10:46:21;101771.34;;;-5.60;100.00
54407;BME280;40313;50.308;30.374;2022-12-04T10:48:51;101778.69;;;-5.46;100.00
54407;BME280;40313;50.308;30.374;2022-12-04T10:51:20;101766.56;;;-5.52;100.00
54407;BME280;40313;50.308;30.374;2022-12-04T10:53:47;101766.63;;;-5.50;100.00
54407;BME280;40313;50.308;30.374;2022-12-04T10:56:16;101765.19;;;-5.45;100.00
54407;BME280;40313;50.308;30.374;2022-12-04T10:58:54;101764.75;;;-5.35;100.00
54407;BME280;40313;50.308;30.374;2022-12-04T11:01:20;101755.25;;;-5.39;100.00
54407;BME280;40313;50.308;30.374;2022-12-04T11:03:55;101751.06;;;-5.58;100.00
54407;BME280;40313;50.308;30.374;2022-12-04T11:06:22;101746.31;;;-5.70;100.00
54407;BME280;40313;50.308;30.374;2022-12-04T11:08:50;101752.13;;;-5.73;100.00
54407;BME280;40313;50.308;30.374;2022-12-04T11:11:25;101745.03;;;-5.80;100.00
54407;BME280;40313;50.308;30.374;2022-12-04T11:14:00;101739.16;;;-5.98;100.00
54407;BME280;40313;50.308;30.374;2022-12-04T11:16:36;101745.56;;;-6.06;100.00
54407;BME280;40313;50.308;30.374;2022-12-04T11:19:21;101737.66;;;-6.13;100.00
54407;BME280;40313;50.308;30.374;2022-12-04T11:21:49;101740.56;;;-6.23;100.00
54407;BME280;40313;50.308;30.374;2022-12-04T11:24:22;101738.53;;;-6.30;100.00
54407;BME280;40313;50.308;30.374;2022-12-04T11:26:51;101738.53;;;-6.30;100.00
54407;BME280;40313;50.308;30.374;2022-12-04T11:29:21;101735.94;;;-6.32;100.00
54407;BME280;40313;50.308;30.374;2022-12-04T11:31:51;101736.38;;;-6.40;100.00
54407;BME280;40313;50.308;30.374;2022-12-04T11:34:21;101742.41;;;-6.38;100.00
54407;BME280;40313;50.308;30.374;2022-12-04T11:36:53;101736.38;;;-6.40;100.00
54407;BME280;40313;50.308;30.374;2022-12-04T11:39:26;101728.69;;;-6.42;100.00
54407;BME280;40313;50.308;30.374;2022-12-04T11:42:02;101733.75;;;-6.42;100.00
54407;BME280;40313;50.308;30.374;2022-12-04T11:44:30;101730.38;;;-6.43;100.00
54407;BME280;40313;50.308;30.374;2022-12-04T11:46:59;101735.50;;;-6.41;100.00
54407;BME280;40313;50.308;30.374;2022-12-04T11:49:28;101730.44;;;-6.41;100.00
54407;BME280;40313;50.308;30.374;2022-12-04T11:52:06;101727.97;;;-6.39;100.00
54407;BME280;40313;50.308;30.374;2022-12-04T11:54:47;101716.72;;;-6.45;100.00
54407;BME280;40313;50.308;30.374;2022-12-04T11:57:25;101720.47;;;-6.36;100.00
54407;BME280;40313;50.308;30.374;2022-12-04T12:00:10;101713.06;;;-6.32;100.00
54407;BME280;40313;50.308;30.374;2022-12-04T12:03:05;101719.03;;;-6.31;100.00
54407;BME280;40313;50.308;30.374;2022-12-04T12:16:40;101711.31;;;-6.15;100.00
54407;BME280;40313;50.308;30.374;2022-12-04T12:19:26;101712.25;;;-6.13;100.00
54407;BME280;40313;50.308;30.374;2022-12-04T12:21:59;101710.66;;;-6.11;100.00
54407;BME280;40313;50.308;30.374;2022-12-04T12:24:36;101712.41;;;-6.10;100.00
54407;BME280;40313;50.308;30.374;2022-12-04T12:27:21;101712.53;;;-6.06;100.00
54407;BME280;40313;50.308;30.374;2022-12-04T12:30:00;101711.72;;;-6.05;100.00
54407;BME280;40313;50.308;30.374;2022-12-04T12:32:43;101705.75;;;-6.06;100.00
54407;BME280;40313;50.308;30.374;2022-12-04T12:35:19;101714.28;;;-6.05;100.00
54407;BME280;40313;50.308;30.374;2022-12-04T12:37:50;101715.06;;;-6.06;100.00
54407;BME280;40313;50.308;30.374;2022-12-04T12:40:26;101703.03;;;-6.11;100.00
54407;BME280;40313;50.308;30.374;2022-12-04T12:42:56;101708.09;;;-6.11;100.00
54407;BME280;40313;50.308;30.374;2022-12-04T12:45:29;101702.81;;;-6.15;100.00
54407;BME280;40313;50.308;30.374;2022-12-04T12:48:07;101704.56;;;-6.14;100.00
54407;BME280;40313;50.308;30.374;2022-12-04T12:50:42;101705.28;;;-6.17;100.00
54407;BME280;40313;50.308;30.374;2022-12-04T12:53:12;101703.53;;;-6.18;100.00
54407;BME280;40313;50.308;30.374;2022-12-04T12:55:44;101701.66;;;-6.22;100.00
54407;BME280;40313;50.308;30.374;2022-12-04T12:58:17;101700.66;;;-6.26;100.00
54407;BME280;40313;50.308;30.374;2022-12-04T13:00:51;101701.41;;;-6.28;100.00
54407;BME280;40313;50.308;30.374;2022-12-04T13:03:29;101697.75;;;-6.33;100.00
54407;BME280;40313;50.308;30.374;2022-12-04T13:06:02;101699.38;;;-6.35;100.00
54407;BME280;40313;50.308;30.374;2022-12-04T13:08:34;101700.81;;;-6.40;100.00
54407;BME280;40313;50.308;30.374;2022-12-04T13:11:05;101690.53;;;-6.44;100.00
54407;BME280;40313;50.308;30.374;2022-12-04T13:13:40;101698.81;;;-6.48;100.00
54407;BME280;40313;50.308;30.374;2022-12-04T13:16:11;101706.06;;;-6.55;100.00
54407;BME280;40313;50.308;30.374;2022-12-04T13:18:46;101707.50;;;-6.61;100.00
54407;BME280;40313;50.308;30.374;2022-12-04T13:21:27;101710.56;;;-6.68;100.00
54407;BME280;40313;50.308;30.374;2022-12-04T13:30:41;101713.69;;;-6.91;100.00
54407;BME280;40313;50.308;30.374;2022-12-04T13:33:40;101717.78;;;-6.93;100.00
54407;BME280;40313;50.308;30.374;2022-12-04T13:36:29;101709.81;;;-7.01;100.00
54407;BME280;40313;50.308;30.374;2022-12-04T13:41:55;101719.72;;;-7.24;100.00
54407;BME280;40313;50.308;30.374;2022-12-04T13:44:23;101724.47;;;-7.30;100.00
54407;BME280;40313;50.308;30.374;2022-12-04T13:46:54;101726.69;;;-7.36;100.00
54407;BME280;40313;50.308;30.374;2022-12-04T13:49:25;101728.22;;;-7.40;100.00
54407;BME280;40313;50.308;30.374;2022-12-04T13:51:54;101729.00;;;-7.41;100.00
54407;BME280;40313;50.308;30.374;2022-12-04T13:54:30;101718.56;;;-7.47;100.00
54407;BME280;40313;50.308;30.374;2022-12-04T13:57:14;101726.66;;;-7.54;100.00
54407;BME280;40313;50.308;30.374;2022-12-04T13:59:42;101729.00;;;-7.57;100.00
54407;BME280;40313;50.308;30.374;2022-12-04T14:02:26;101725.31;;;-7.64;100.00
54407;BME280;40313;50.308;30.374;2022-12-04T14:04:56;101716.44;;;-7.72;100.00
54407;BME280;40313;50.308;30.374;2022-12-04T14:07:27;101725.44;;;-7.77;100.00
54407;BME280;40313;50.308;30.374;2022-12-04T14:09:56;101719.13;;;-7.86;100.00
54407;BME280;40313;50.308;30.374;2022-12-04T14:12:26;101715.47;;;-7.91;100.00
54407;BME280;40313;50.308;30.374;2022-12-04T14:14:55;101714.53;;;-7.93;100.00
54407;BME280;40313;50.308;30.374;2022-12-04T14:17:26;101716.78;;;-7.97;100.00
54407;BME280;40313;50.308;30.374;2022-12-04T14:19:56;101721.56;;;-8.04;100.00
54407;BME280;40313;50.308;30.374;2022-12-04T14:22:37;101724.63;;;-8.09;100.00
54407;BME280;40313;50.308;30.374;2022-12-04T14:25:07;101721.94;;;-8.12;100.00
54407;BME280;40313;50.308;30.374;2022-12-04T14:27:46;101725.16;;;-8.15;100.00
54407;BME280;40313;50.308;30.374;2022-12-04T18:57:07;101715.03;;;-9.52;100.00
54407;BME280;40313;50.308;30.374;2022-12-04T18:59:35;101725.81;;;-9.55;100.00
54407;BME280;40313;50.308;30.374;2022-12-04T19:02:02;101723.91;;;-9.59;100.00
54407;BME280;40313;50.308;30.374;2022-12-04T19:23:59;101747.34;;;-9.90;100.00
54407;BME280;40313;50.308;30.374;2022-12-04T19:26:29;101753.84;;;-9.94;100.00
54407;BME280;40313;50.308;30.374;2022-12-04T19:28:56;101756.88;;;-9.99;100.00
54407;BME280;40313;50.308;30.374;2022-12-04T19:45:24;101755.19;;;-10.27;100.00
54407;BME280;40313;50.308;30.374;2022-12-04T19:47:51;101759.16;;;-10.31;100.00
54407;BME280;40313;50.308;30.374;2022-12-04T19:50:17;101761.56;;;-10.32;100.00
54407;BME280;40313;50.308;30.374;2022-12-04T19:52:44;101759.91;;;-10.32;100.00
54407;BME280;40313;50.308;30.374;2022-12-04T19:55:10;101761.50;;;-10.34;100.00
54407;BME280;40313;50.308;30.374;2022-12-04T19:57:37;101762.84;;;-10.39;100.00
54407;BME280;40313;50.308;30.374;2022-12-04T20:00:05;101764.44;;;-10.41;100.00
54407;BME280;40313;50.308;30.374;2022-12-04T20:02:33;101762.38;;;-10.47;100.00
54407;BME280;40313;50.308;30.374;2022-12-04T20:04:59;101768.09;;;-10.49;100.00
54407;BME280;40313;50.308;30.374;2022-12-04T20:07:26;101755.41;;;-10.51;100.00
54407;BME280;40313;50.308;30.374;2022-12-04T20:13:37;101768.00;;;-10.51;100.00
54407;BME280;40313;50.308;30.374;2022-12-04T20:16:06;101774.00;;;-10.49;100.00
54407;BME280;40313;50.308;30.374;2022-12-04T20:18:34;101767.72;;;-10.42;100.00
54407;BME280;40313;50.308;30.374;2022-12-04T20:21:01;101770.25;;;-10.42;100.00
54407;BME280;40313;50.308;30.374;2022-12-04T20:23:30;101775.47;;;-10.39;100.00
54407;BME280;40313;50.308;30.374;2022-12-04T20:26:02;101776.47;;;-10.37;100.00
54407;BME280;40313;50.308;30.374;2022-12-04T20:28:29;101772.19;;;-10.38;100.00
54407;BME280;40313;50.308;30.374;2022-12-04T20:33:59;101770.53;;;-10.37;100.00
54407;BME280;40313;50.308;30.374;2022-12-04T20:36:28;101773.94;;;-10.37;100.00
54407;BME280;40313;50.308;30.374;2022-12-04T20:38:57;101773.94;;;-10.37;100.00
54407;BME280;40313;50.308;30.374;2022-12-04T20:41:25;101768.28;;;-10.33;100.00
54407;BME280;40313;50.308;30.374;2022-12-04T20:43:52;101764.88;;;-10.33;100.00
54407;BME280;40313;50.308;30.374;2022-12-04T20:46:20;101778.38;;;-10.33;100.00
54407;BME280;40313;50.308;30.374;2022-12-04T20:48:48;101771.00;;;-10.30;100.00
54407;BME280;40313;50.308;30.374;2022-12-04T20:51:17;101767.69;;;-10.29;100.00
54407;BME280;40313;50.308;30.374;2022-12-04T20:53:44;101767.00;;;-10.26;100.00
54407;BME280;40313;50.308;30.374;2022-12-04T20:56:12;101763.78;;;-10.23;100.00
54407;BME280;40313;50.308;30.374;2022-12-04T20:58:39;101767.19;;;-10.23;100.00
54407;BME280;40313;50.308;30.374;2022-12-04T21:01:07;101776.00;;;-10.16;100.00
54407;BME280;40313;50.308;30.374;2022-12-04T21:03:33;101778.53;;;-10.16;100.00
54407;BME280;40313;50.308;30.374;2022-12-04T21:06:00;101780.47;;;-10.12;100.00
54407;BME280;40313;50.308;30.374;2022-12-04T21:08:28;101776.50;;;-10.09;100.00
54407;BME280;40313;50.308;30.374;2022-12-04T21:11:15;101774.16;;;-10.05;100.00
54407;BME280;40313;50.308;30.374;2022-12-04T21:13:41;101766.00;;;-10.01;100.00
54407;BME280;40313;50.308;30.374;2022-12-04T21:16:25;101772.09;;;-9.98;100.00
54407;BME280;40313;50.308;30.374;2022-12-04T21:18:52;101771.34;;;-9.97;100.00
54407;BME280;40313;50.308;30.374;2022-12-04T21:21:18;101768.91;;;-9.95;100.00
54407;BME280;40313;50.308;30.374;2022-12-04T21:23:46;101768.03;;;-9.96;100.00
54407;BME280;40313;50.308;30.374;2022-12-04T21:26:13;101761.91;;;-9.99;100.00
54407;BME280;40313;50.308;30.374;2022-12-04T21:28:39;101763.75;;;-9.97;100.00
54407;BME280;40313;50.308;30.374;2022-12-04T21:31:06;101752.09;;;-9.95;100.00
54407;BME280;40313;50.308;30.374;2022-12-04T21:33:33;101761.22;;;-9.97;100.00
54407;BME280;40313;50.308;30.374;2022-12-04T21:36:00;101760.25;;;-9.99;100.00
54407;BME280;40313;50.308;30.374;2022-12-04T21:38:28;101757.44;;;-10.03;100.00
54407;BME280;40313;50.308;30.374;2022-12-04T21:40:58;101755.59;;;-10.06;100.00
54407;BME280;40313;50.308;30.374;2022-12-04T21:43:26;101758.94;;;-10.07;100.00
54407;BME280;40313;50.308;30.374;2022-12-04T21:45:56;101753.88;;;-10.07;100.00
54407;BME280;40313;50.308;30.374;2022-12-04T21:48:23;101758.94;;;-10.07;100.00
54407;BME280;40313;50.308;30.374;2022-12-04T21:50:50;101754.56;;;-10.10;100.00
54407;BME280;40313;50.308;30.374;2022-12-04T21:58:13;101748.94;;;-10.19;100.00
54407;BME280;40313;50.308;30.374;2022-12-04T22:00:39;101742.66;;;-10.26;100.00
54407;BME280;40313;50.308;30.374;2022-12-04T22:03:06;101749.41;;;-10.25;100.00
54407;BME280;40313;50.308;30.374;2022-12-04T22:05:33;101737.59;;;-10.26;100.00
54407;BME280;40313;50.308;30.374;2022-12-04T22:07:59;101747.59;;;-10.27;100.00
54407;BME280;40313;50.308;30.374;2022-12-04T22:10:26;101745.66;;;-10.31;100.00
54407;BME280;40313;50.308;30.374;2022-12-04T22:12:52;101742.88;;;-10.36;100.00
54407;BME280;40313;50.308;30.374;2022-12-04T22:15:20;101748.53;;;-10.40;100.00
54407;BME280;40313;50.308;30.374;2022-12-04T22:17:47;101740.25;;;-10.37;100.00
54407;BME280;40313;50.308;30.374;2022-12-04T22:20:13;101746.97;;;-10.38;100.00
54407;BME280;40313;50.308;30.374;2022-12-04T22:22:40;101739.56;;;-10.35;100.00
54407;BME280;40313;50.308;30.374;2022-12-04T22:25:07;101732.00;;;-10.35;100.00
54407;BME280;40313;50.308;30.374;2022-12-04T22:27:34;101737.19;;;-10.32;100.00
54407;BME280;40313;50.308;30.374;2022-12-04T22:30:01;101737.03;;;-10.35;100.00
